createdAt,value
2023-01-29T00:00:46.858Z,-1.24
2023-01-29T00:01:49.447Z,-1.26
2023-01-29T00:02:53.301Z,-1.22
2023-01-29T00:03:54.795Z,-0.93
2023-01-29T00:04:59.032Z,-0.94
2023-01-29T00:06:04.687Z,-0.91
2023-01-29T00:07:07.179Z,-1.20
2023-01-29T00:08:08.657Z,-1.06
2023-01-29T00:09:11.484Z,-1.11
2023-01-29T00:10:13.622Z,-0.96
2023-01-29T00:11:16.656Z,-1.00
2023-01-29T00:12:18.347Z,-1.10
2023-01-29T00:13:20.870Z,-0.73
2023-01-29T00:14:23.302Z,-1.07
2023-01-29T00:15:24.828Z,-0.98
2023-01-29T00:16:27.364Z,-0.91
2023-01-29T00:17:28.922Z,-1.44
2023-01-29T00:18:33.191Z,-1.33
2023-01-29T00:19:35.613Z,-1.62
2023-01-29T00:20:38.030Z,-1.65
2023-01-29T00:21:39.538Z,-2.07
2023-01-29T00:23:43.973Z,-2.06
2023-01-29T00:24:46.412Z,-1.56
2023-01-29T00:25:48.399Z,-1.40
2023-01-29T00:26:51.075Z,-1.03
2023-01-29T00:27:52.566Z,-0.94
2023-01-29T00:28:56.972Z,-1.06
2023-01-29T00:30:11.993Z,-1.11
2023-01-29T00:31:16.516Z,-0.93
2023-01-29T00:32:18.144Z,-0.98
2023-01-29T00:33:20.690Z,-0.94
2023-01-29T00:34:23.614Z,-1.19
2023-01-29T00:35:26.106Z,-1.08
2023-01-29T00:36:28.176Z,-0.83
2023-01-29T00:37:31.045Z,-0.99
2023-01-29T00:38:33.116Z,-1.35
2023-01-29T00:39:47.395Z,-1.46
2023-01-29T00:41:08.431Z,-1.29
2023-01-29T00:42:28.315Z,-1.13
2023-01-29T00:43:48.417Z,-0.96
2023-01-29T00:44:59.838Z,-0.74
2023-01-29T00:46:01.348Z,-0.60
2023-01-29T00:47:04.288Z,-0.72
2023-01-29T00:48:06.605Z,-1.50
2023-01-29T00:49:10.043Z,-1.58
2023-01-29T00:50:13.328Z,-1.53
2023-01-29T00:51:16.712Z,-1.61
2023-01-29T00:52:24.013Z,-1.76
2023-01-29T00:53:26.482Z,-1.88
2023-01-29T00:54:28.292Z,-1.92
2023-01-29T00:55:30.806Z,-2.13
2023-01-29T00:56:33.899Z,-1.83
2023-01-29T00:57:36.903Z,-1.57
2023-01-29T00:58:38.400Z,-1.84
2023-01-29T00:59:41.092Z,-2.01
2023-01-29T01:00:42.674Z,-1.81
2023-01-29T01:02:03.122Z,-1.75
2023-01-29T01:03:08.798Z,-1.73
2023-01-29T01:04:12.073Z,-1.74
2023-01-29T01:05:19.054Z,-1.71
2023-01-29T01:06:20.571Z,-1.48
2023-01-29T01:07:23.022Z,-1.80
2023-01-29T01:08:43.314Z,-1.74
2023-01-29T01:10:03.781Z,-1.85
2023-01-29T01:11:07.512Z,-1.91
2023-01-29T01:12:09.160Z,-1.71
2023-01-29T01:13:12.512Z,-1.65
2023-01-29T01:14:14.280Z,-1.54
2023-01-29T01:15:17.142Z,-1.72
2023-01-29T01:16:18.920Z,-1.62
2023-01-29T01:17:21.424Z,-1.58
2023-01-29T01:18:23.927Z,-1.59
2023-01-29T01:19:25.452Z,-1.32
2023-01-29T01:20:31.003Z,-1.56
2023-01-29T01:21:33.211Z,-1.65
2023-01-29T01:22:35.795Z,-1.37
2023-01-29T01:23:37.651Z,-1.15
2023-01-29T01:24:40.201Z,-1.08
2023-01-29T01:25:41.709Z,-1.04
2023-01-29T01:26:44.152Z,-1.00
2023-01-29T01:27:46.399Z,-1.50
2023-01-29T01:28:49.055Z,-1.25
2023-01-29T01:29:50.574Z,-1.19
2023-01-29T01:30:53.334Z,-1.18
2023-01-29T01:31:55.108Z,-1.20
2023-01-29T01:32:58.002Z,-1.34
2023-01-29T01:33:59.588Z,-1.10
2023-01-29T01:35:02.010Z,-1.09
2023-01-29T01:36:09.454Z,-1.94
2023-01-29T01:37:11.914Z,-1.77
2023-01-29T01:38:13.377Z,-1.79
2023-01-29T01:39:15.940Z,-1.81
2023-01-29T01:40:20.376Z,-1.73
2023-01-29T01:41:24.226Z,-1.97
2023-01-29T01:42:30.045Z,-1.85
2023-01-29T01:43:49.241Z,-1.69
2023-01-29T01:44:54.070Z,-2.00
2023-01-29T01:45:56.571Z,-1.74
2023-01-29T01:47:01.721Z,-1.81
2023-01-29T01:48:08.367Z,-1.65
2023-01-29T01:49:15.337Z,-1.61
2023-01-29T01:50:22.539Z,-1.59
2023-01-29T01:51:28.656Z,-1.90
2023-01-29T01:52:33.943Z,-1.95
2023-01-29T01:53:42.099Z,-2.15
2023-01-29T01:54:45.363Z,-2.05
2023-01-29T01:55:51.872Z,-2.36
2023-01-29T01:57:05.013Z,-2.38
2023-01-29T01:58:11.635Z,-2.37
2023-01-29T01:59:16.704Z,-2.14
2023-01-29T02:00:22.399Z,-2.23
2023-01-29T02:01:27.842Z,-2.10
2023-01-29T02:02:48.072Z,-2.43
2023-01-29T02:04:13.447Z,-2.00
2023-01-29T02:05:33.844Z,-1.98
2023-01-29T02:06:59.472Z,-1.78
2023-01-29T02:08:19.757Z,-1.92
2023-01-29T02:09:32.601Z,-2.31
2023-01-29T02:10:39.233Z,-2.07
2023-01-29T02:11:41.908Z,-1.94
2023-01-29T02:12:45.418Z,-1.88
2023-01-29T02:13:53.485Z,-1.53
2023-01-29T02:14:56.495Z,-1.45
2023-01-29T02:15:58.059Z,-1.36
2023-01-29T02:17:01.848Z,-1.38
2023-01-29T02:18:03.763Z,-1.44
2023-01-29T02:19:12.376Z,-1.61
2023-01-29T02:20:24.230Z,-1.15
2023-01-29T02:21:51.526Z,-1.51
2023-01-29T02:23:16.873Z,-1.51
2023-01-29T02:24:50.005Z,-1.46
2023-01-29T02:26:17.779Z,-1.47
2023-01-29T02:27:22.074Z,-2.07
2023-01-29T02:28:33.707Z,-1.68
2023-01-29T02:29:49.423Z,-1.69
2023-01-29T02:30:58.887Z,-1.95
2023-01-29T02:32:14.315Z,-2.14
2023-01-29T02:33:27.237Z,-2.55
2023-01-29T02:34:59.534Z,-2.62
2023-01-29T02:36:14.775Z,-2.18
2023-01-29T02:37:16.562Z,-2.45
2023-01-29T02:38:27.021Z,-2.54
2023-01-29T02:39:35.595Z,-2.34
2023-01-29T02:40:44.514Z,-2.16
2023-01-29T02:41:55.013Z,-2.48
2023-01-29T02:43:07.492Z,-2.32
2023-01-29T02:44:23.095Z,-2.18
2023-01-29T02:45:33.004Z,-1.77
2023-01-29T02:46:40.040Z,-1.49
2023-01-29T02:47:47.870Z,-1.58
2023-01-29T02:48:56.619Z,-1.97
2023-01-29T02:50:03.961Z,-2.03
2023-01-29T02:51:11.558Z,-2.28
2023-01-29T02:52:21.004Z,-2.73
2023-01-29T02:53:28.359Z,-2.55
2023-01-29T02:54:40.368Z,-2.34
2023-01-29T02:55:47.026Z,-2.25
2023-01-29T02:56:54.907Z,-2.43
2023-01-29T02:58:01.298Z,-2.38
2023-01-29T02:59:08.906Z,-2.37
2023-01-29T03:00:16.502Z,-2.05
2023-01-29T03:01:30.533Z,-1.69
2023-01-29T03:02:38.036Z,-1.70
2023-01-29T03:03:44.721Z,-1.79
2023-01-29T03:04:53.113Z,-1.75
2023-01-29T03:06:06.411Z,-2.07
2023-01-29T03:07:22.486Z,-1.87
2023-01-29T03:08:42.812Z,-1.97
2023-01-29T03:09:51.312Z,-1.61
2023-01-29T03:10:59.851Z,-1.50
2023-01-29T03:12:20.169Z,-2.00
2023-01-29T03:13:29.659Z,-2.82
2023-01-29T03:15:02.307Z,-2.75
2023-01-29T03:16:13.031Z,-2.41
2023-01-29T03:17:14.884Z,-2.41
2023-01-29T03:18:22.699Z,-2.47
2023-01-29T03:19:34.485Z,-2.34
2023-01-29T03:20:47.931Z,-2.31
2023-01-29T03:21:59.157Z,-2.30
2023-01-29T03:23:08.002Z,-2.80
2023-01-29T03:24:32.150Z,-2.38
2023-01-29T03:25:54.800Z,-2.01
2023-01-29T03:27:16.678Z,-2.19
2023-01-29T03:28:38.514Z,-2.08
2023-01-29T03:30:01.083Z,-1.94
2023-01-29T03:31:26.994Z,-2.17
2023-01-29T03:32:36.056Z,-2.55
2023-01-29T03:33:44.606Z,-2.69
2023-01-29T03:34:52.053Z,-2.47
2023-01-29T03:36:00.882Z,-2.33
2023-01-29T03:37:09.451Z,-2.12
2023-01-29T03:38:11.983Z,-2.14
2023-01-29T03:39:16.620Z,-2.18
2023-01-29T03:40:18.624Z,-2.25
2023-01-29T03:41:29.817Z,-2.60
2023-01-29T03:42:44.142Z,-2.61
2023-01-29T03:43:56.000Z,-2.26
2023-01-29T03:45:06.131Z,-2.06
2023-01-29T03:46:19.219Z,-2.28
2023-01-29T03:47:24.988Z,-2.04
2023-01-29T03:48:35.065Z,-2.06
2023-01-29T03:49:52.059Z,-2.03
2023-01-29T03:51:00.172Z,-1.88
2023-01-29T03:52:09.332Z,-1.76
2023-01-29T03:53:22.325Z,-1.51
2023-01-29T03:54:30.077Z,-1.85
2023-01-29T03:55:39.768Z,-1.61
2023-01-29T03:56:54.154Z,-1.67
2023-01-29T03:58:02.217Z,-1.65
2023-01-29T03:59:15.209Z,-1.69
2023-01-29T04:00:22.887Z,-1.50
2023-01-29T04:01:31.791Z,-1.59
2023-01-29T04:02:40.568Z,-1.68
2023-01-29T04:03:48.976Z,-1.81
2023-01-29T04:04:53.495Z,-1.84
2023-01-29T04:05:58.416Z,-1.56
2023-01-29T04:07:06.138Z,-1.37
2023-01-29T04:08:15.087Z,-1.45
2023-01-29T04:09:22.579Z,-1.35
2023-01-29T04:10:27.664Z,-1.49
2023-01-29T04:11:30.751Z,-1.40
2023-01-29T04:12:41.374Z,-1.57
2023-01-29T04:13:44.932Z,-1.69
2023-01-29T04:14:48.661Z,-1.58
2023-01-29T04:15:57.076Z,-1.60
2023-01-29T04:17:03.495Z,-1.92
2023-01-29T04:18:06.496Z,-1.72
2023-01-29T04:19:12.907Z,-1.51
2023-01-29T04:20:15.851Z,-1.43
2023-01-29T04:21:18.561Z,-1.92
2023-01-29T04:22:27.243Z,-1.87
2023-01-29T04:23:28.960Z,-2.14
2023-01-29T04:24:32.376Z,-2.03
2023-01-29T04:25:43.053Z,-2.06
2023-01-29T04:26:59.721Z,-2.01
2023-01-29T04:28:08.649Z,-2.19
2023-01-29T04:29:22.794Z,-2.42
2023-01-29T04:30:33.569Z,-2.14
2023-01-29T04:31:40.709Z,-2.32
2023-01-29T04:32:57.742Z,-2.66
2023-01-29T04:34:08.450Z,-2.45
2023-01-29T04:35:23.961Z,-2.09
2023-01-29T04:36:35.016Z,-2.08
2023-01-29T04:37:42.284Z,-1.79
2023-01-29T04:38:59.142Z,-1.64
2023-01-29T04:40:12.376Z,-1.55
2023-01-29T04:41:21.973Z,-1.85
2023-01-29T04:42:31.165Z,-1.96
2023-01-29T04:43:43.226Z,-2.26
2023-01-29T04:44:54.460Z,-2.08
2023-01-29T04:46:12.884Z,-2.48
2023-01-29T04:47:21.910Z,-2.35
2023-01-29T04:48:29.779Z,-2.30
2023-01-29T04:49:39.995Z,-2.38
2023-01-29T04:50:48.863Z,-2.21
2023-01-29T04:51:58.498Z,-2.18
2023-01-29T04:53:08.074Z,-1.96
2023-01-29T04:54:15.739Z,-2.14
2023-01-29T04:55:22.550Z,-2.32
2023-01-29T04:56:30.197Z,-2.24
2023-01-29T04:57:48.204Z,-1.91
2023-01-29T04:58:55.157Z,-1.89
2023-01-29T05:00:04.023Z,-1.62
2023-01-29T05:01:09.694Z,-1.75
2023-01-29T05:02:13.972Z,-2.17
2023-01-29T05:03:16.854Z,-2.07
2023-01-29T05:04:21.888Z,-2.00
2023-01-29T05:05:23.544Z,-2.07
2023-01-29T05:06:27.160Z,-1.97
2023-01-29T05:07:31.212Z,-2.04
2023-01-29T05:08:35.053Z,-2.07
2023-01-29T05:09:38.910Z,-2.03
2023-01-29T05:10:42.402Z,-1.77
2023-01-29T05:11:48.905Z,-1.66
2023-01-29T05:12:56.794Z,-1.65
2023-01-29T05:13:59.705Z,-1.84
2023-01-29T05:15:05.415Z,-1.74
2023-01-29T05:16:14.414Z,-1.70
2023-01-29T05:17:19.471Z,-1.78
2023-01-29T05:18:22.241Z,-2.53
2023-01-29T05:19:25.194Z,-2.72
2023-01-29T05:20:27.841Z,-2.52
2023-01-29T05:21:29.730Z,-2.19
2023-01-29T05:22:32.693Z,-2.15
2023-01-29T05:23:34.467Z,-2.00
2023-01-29T05:24:37.118Z,-2.01
2023-01-29T05:25:39.124Z,-1.94
2023-01-29T05:27:00.666Z,-1.68
2023-01-29T05:28:06.534Z,-1.88
2023-01-29T05:29:08.231Z,-1.70
2023-01-29T05:30:11.809Z,-1.61
2023-01-29T05:31:14.748Z,-1.41
2023-01-29T05:32:16.715Z,-1.23
2023-01-29T05:33:21.535Z,-1.76
2023-01-29T05:34:23.904Z,-2.31
2023-01-29T05:35:28.709Z,-2.09
2023-01-29T05:36:30.776Z,-2.39
2023-01-29T05:37:34.353Z,-2.16
2023-01-29T05:38:35.989Z,-1.98
2023-01-29T05:39:38.572Z,-1.77
2023-01-29T05:40:41.792Z,-1.90
2023-01-29T05:41:43.911Z,-1.79
2023-01-29T05:42:48.110Z,-1.43
2023-01-29T05:43:49.743Z,-1.51
2023-01-29T05:44:52.719Z,-2.00
2023-01-29T05:45:55.423Z,-2.00
2023-01-29T05:46:58.062Z,-2.25
2023-01-29T05:48:00.234Z,-1.96
2023-01-29T05:49:02.767Z,-1.74
2023-01-29T05:50:05.908Z,-1.75
2023-01-29T05:51:09.791Z,-2.13
2023-01-29T05:52:11.411Z,-2.12
2023-01-29T05:53:14.053Z,-2.08
2023-01-29T05:54:15.767Z,-2.09
2023-01-29T05:55:18.291Z,-1.88
2023-01-29T05:56:20.039Z,-1.56
2023-01-29T05:57:22.978Z,-1.55
2023-01-29T05:58:24.649Z,-1.33
2023-01-29T05:59:28.023Z,-1.58
2023-01-29T06:00:30.674Z,-1.78
2023-01-29T06:01:32.456Z,-1.91
2023-01-29T06:02:35.376Z,-1.90
2023-01-29T06:03:37.331Z,-1.98
2023-01-29T06:04:39.912Z,-1.86
2023-01-29T06:05:41.466Z,-1.89
2023-01-29T06:06:45.435Z,-1.69
2023-01-29T06:07:47.360Z,-1.51
2023-01-29T06:08:50.073Z,-1.83
2023-01-29T06:09:51.959Z,-1.73
2023-01-29T06:10:54.992Z,-1.68
2023-01-29T06:11:56.747Z,-1.69
2023-01-29T06:12:59.381Z,-1.47
2023-01-29T06:14:00.991Z,-1.77
2023-01-29T06:15:04.054Z,-1.70
2023-01-29T06:16:06.566Z,-1.56
2023-01-29T06:17:09.137Z,-1.42
2023-01-29T06:18:10.936Z,-1.74
2023-01-29T06:19:13.854Z,-1.87
2023-01-29T06:20:15.774Z,-2.03
2023-01-29T06:21:20.139Z,-2.21
2023-01-29T06:22:23.521Z,-2.07
2023-01-29T06:23:26.114Z,-1.88
2023-01-29T06:24:27.734Z,-1.76
2023-01-29T06:25:30.340Z,-1.76
2023-01-29T06:26:31.938Z,-1.94
2023-01-29T06:27:34.491Z,-1.87
2023-01-29T06:28:36.177Z,-1.58
2023-01-29T06:29:38.886Z,-1.25
2023-01-29T06:30:40.489Z,-1.05
2023-01-29T06:31:43.156Z,-1.49
2023-01-29T06:32:44.845Z,-1.40
2023-01-29T06:33:47.818Z,-1.19
2023-01-29T06:34:49.870Z,-1.22
2023-01-29T06:35:57.661Z,-1.28
2023-01-29T06:36:59.512Z,-1.59
2023-01-29T06:38:03.536Z,-1.63
2023-01-29T06:39:05.232Z,-1.33
2023-01-29T06:40:09.231Z,-1.12
2023-01-29T06:41:12.573Z,-1.31
2023-01-29T06:42:15.306Z,-1.39
2023-01-29T06:43:17.848Z,-1.42
2023-01-29T06:44:20.571Z,-1.61
2023-01-29T06:45:22.550Z,-2.13
2023-01-29T06:46:25.211Z,-2.00
2023-01-29T06:47:27.580Z,-1.79
2023-01-29T06:48:30.266Z,-1.46
2023-01-29T06:49:32.001Z,-1.48
2023-01-29T06:50:34.594Z,-1.70
2023-01-29T06:51:36.389Z,-1.95
2023-01-29T06:52:39.069Z,-2.08
2023-01-29T06:53:43.999Z,-1.87
2023-01-29T06:54:48.007Z,-1.79
2023-01-29T06:55:53.079Z,-1.71
2023-01-29T06:56:56.336Z,-1.52
2023-01-29T06:57:58.007Z,-2.07
2023-01-29T06:59:01.228Z,-2.12
2023-01-29T07:00:03.311Z,-1.78
2023-01-29T07:01:07.040Z,-1.97
2023-01-29T07:02:09.529Z,-1.97
2023-01-29T07:03:12.257Z,-1.65
2023-01-29T07:04:14.775Z,-1.59
2023-01-29T07:05:16.369Z,-1.15
2023-01-29T07:06:18.987Z,-0.96
2023-01-29T07:07:20.732Z,-1.13
2023-01-29T07:08:23.474Z,-1.13
2023-01-29T07:09:26.647Z,-1.41
2023-01-29T07:10:29.346Z,-1.59
2023-01-29T07:11:31.258Z,-1.55
2023-01-29T07:12:34.080Z,-1.50
2023-01-29T07:13:37.403Z,-1.44
2023-01-29T07:14:38.988Z,-1.59
2023-01-29T07:15:41.752Z,-1.29
2023-01-29T07:16:44.327Z,-1.19
2023-01-29T07:17:57.554Z,-1.11
2023-01-29T07:18:59.416Z,-1.00
2023-01-29T07:20:01.882Z,-0.91
2023-01-29T07:21:06.402Z,-1.04
2023-01-29T07:22:08.944Z,-1.00
2023-01-29T07:23:12.666Z,-0.80
2023-01-29T07:24:16.479Z,-0.59
2023-01-29T07:25:19.610Z,-0.74
2023-01-29T07:26:22.522Z,-1.24
2023-01-29T07:27:24.482Z,-1.23
2023-01-29T07:28:27.333Z,-1.37
2023-01-29T07:29:28.935Z,-1.36
2023-01-29T07:30:31.766Z,-1.43
2023-01-29T07:31:33.760Z,-1.44
2023-01-29T07:32:36.558Z,-1.38
2023-01-29T07:33:39.217Z,-1.48
2023-01-29T07:34:40.826Z,-1.75
2023-01-29T07:35:44.535Z,-1.60
2023-01-29T07:36:46.142Z,-1.33
2023-01-29T07:37:50.239Z,-1.15
2023-01-29T07:38:52.003Z,-1.22
2023-01-29T07:39:54.490Z,-1.55
2023-01-29T07:40:59.779Z,-1.67
2023-01-29T07:42:02.763Z,-1.55
2023-01-29T07:43:07.933Z,-1.46
2023-01-29T07:44:09.666Z,-1.34
2023-01-29T07:45:12.907Z,-1.53
2023-01-29T07:46:14.575Z,-1.77
2023-01-29T07:47:17.391Z,-1.64
2023-01-29T07:48:19.204Z,-1.31
2023-01-29T07:49:21.915Z,-1.70
2023-01-29T07:50:24.415Z,-1.35
2023-01-29T07:51:27.143Z,-1.37
2023-01-29T07:52:30.179Z,-1.62
2023-01-29T07:53:33.123Z,-1.37
2023-01-29T07:54:34.661Z,-1.33
2023-01-29T07:55:37.164Z,-1.15
2023-01-29T07:56:40.208Z,-0.99
2023-01-29T07:57:42.689Z,-0.79
2023-01-29T07:58:45.417Z,-0.71
2023-01-29T07:59:47.033Z,-1.54
2023-01-29T08:00:49.741Z,-1.59
2023-01-29T08:01:52.427Z,-1.62
2023-01-29T08:02:54.142Z,-1.81
2023-01-29T08:03:57.472Z,-2.07
2023-01-29T08:05:00.007Z,-2.05
2023-01-29T08:06:01.711Z,-1.89
2023-01-29T08:07:04.847Z,-1.72
2023-01-29T08:08:07.815Z,-2.01
2023-01-29T08:09:11.667Z,-1.91
2023-01-29T08:10:13.390Z,-2.02
2023-01-29T08:11:16.523Z,-2.18
2023-01-29T08:12:19.513Z,-1.95
2023-01-29T08:13:22.312Z,-1.81
2023-01-29T08:14:24.018Z,-1.64
2023-01-29T08:15:26.897Z,-1.63
2023-01-29T08:16:29.466Z,-1.62
2023-01-29T08:17:31.117Z,-1.20
2023-01-29T08:18:33.782Z,-1.16
2023-01-29T08:19:35.553Z,-1.11
2023-01-29T08:20:38.379Z,-1.33
2023-01-29T08:21:40.031Z,-1.16
2023-01-29T08:22:42.859Z,-1.16
2023-01-29T08:23:44.467Z,-1.09
2023-01-29T08:24:59.915Z,-0.76
2023-01-29T08:26:03.648Z,-0.63
2023-01-29T08:27:05.219Z,-0.74
2023-01-29T08:28:09.809Z,-0.34
2023-01-29T08:29:11.443Z,-0.15
2023-01-29T08:30:14.916Z,-0.32
2023-01-29T08:31:17.655Z,-0.33
2023-01-29T08:32:20.308Z,-0.17
2023-01-29T08:34:45.737Z,-0.53
2023-01-29T08:35:49.348Z,-0.87
2023-01-29T08:36:52.270Z,-1.01
2023-01-29T08:37:54.966Z,-1.23
2023-01-29T08:38:57.699Z,-1.42
2023-01-29T08:40:00.451Z,-1.20
2023-01-29T08:41:02.115Z,-0.92
2023-01-29T08:42:04.820Z,-0.81
2023-01-29T08:43:10.206Z,-0.93
2023-01-29T08:44:13.033Z,-0.82
2023-01-29T08:45:14.835Z,-1.15
2023-01-29T08:46:17.316Z,-0.89
2023-01-29T08:47:19.004Z,-0.68
2023-01-29T08:48:21.526Z,-0.74
2023-01-29T08:49:23.191Z,-0.84
2023-01-29T08:50:25.913Z,-0.77
2023-01-29T08:51:30.120Z,-0.44
2023-01-29T08:52:33.389Z,-0.39
2023-01-29T08:53:36.172Z,-0.49
2023-01-29T08:54:37.665Z,-0.30
2023-01-29T08:55:41.959Z,-0.29
2023-01-29T08:56:45.349Z,-0.06
2023-01-29T08:57:47.412Z,0.08
2023-01-29T08:58:51.351Z,0.04
2023-01-29T08:59:52.984Z,0.04
2023-01-29T09:00:55.626Z,0.01
2023-01-29T09:01:57.191Z,0.00
2023-01-29T09:03:01.041Z,-0.11
2023-01-29T09:04:02.884Z,-0.40
2023-01-29T09:05:06.550Z,-0.61
2023-01-29T09:06:10.059Z,-0.39
2023-01-29T09:07:13.191Z,-0.70
2023-01-29T09:08:15.914Z,-0.59
2023-01-29T09:09:19.199Z,-0.32
2023-01-29T09:10:20.918Z,-0.29
2023-01-29T09:11:23.820Z,-0.41
2023-01-29T09:12:25.748Z,-0.37
2023-01-29T09:13:28.407Z,-0.71
2023-01-29T09:14:32.984Z,-0.45
2023-01-29T09:15:34.769Z,-0.33
2023-01-29T09:16:37.363Z,-0.46
2023-01-29T09:17:39.117Z,-0.30
2023-01-29T09:18:42.135Z,-0.32
2023-01-29T09:19:43.903Z,-0.69
2023-01-29T09:20:46.473Z,-0.86
2023-01-29T09:21:50.264Z,-0.46
2023-01-29T09:22:53.806Z,-0.53
2023-01-29T09:23:55.661Z,-0.55
2023-01-29T09:24:58.471Z,-0.25
2023-01-29T09:26:01.637Z,0.00
2023-01-29T09:27:03.940Z,-0.22
2023-01-29T09:28:07.156Z,-0.28
2023-01-29T09:29:11.546Z,-0.29
2023-01-29T09:30:15.236Z,-0.45
2023-01-29T09:31:18.328Z,-0.34
2023-01-29T09:32:49.800Z,-0.03
2023-01-29T09:33:43.059Z,-0.11
2023-01-29T09:34:44.856Z,-0.57
2023-01-29T09:35:47.874Z,-0.56
2023-01-29T09:36:49.488Z,-0.31
2023-01-29T09:37:52.850Z,0.02
2023-01-29T09:38:55.602Z,-0.21
2023-01-29T09:39:57.101Z,-0.31
2023-01-29T09:41:09.690Z,-0.18
2023-01-29T09:42:19.587Z,-0.38
2023-01-29T09:43:27.204Z,-0.27
2023-01-29T09:44:49.876Z,-0.27
2023-01-29T09:45:58.379Z,-0.28
2023-01-29T09:47:05.139Z,-0.41
2023-01-29T09:48:13.632Z,-0.37
2023-01-29T09:49:22.065Z,-0.46
2023-01-29T09:50:30.075Z,-0.42
2023-01-29T09:51:37.828Z,-0.26
2023-01-29T09:52:46.122Z,-0.44
2023-01-29T09:53:58.504Z,-0.37
2023-01-29T09:55:06.031Z,-0.31
2023-01-29T09:56:13.760Z,-0.35
2023-01-29T09:57:21.569Z,-0.18
2023-01-29T09:58:29.793Z,-0.24
2023-01-29T09:59:33.463Z,-0.32
2023-01-29T10:00:39.498Z,-0.07
2023-01-29T10:01:53.985Z,-0.23
2023-01-29T10:03:13.178Z,-0.15
2023-01-29T10:04:36.614Z,-0.41
2023-01-29T10:05:55.018Z,-0.32
2023-01-29T10:07:16.259Z,-0.28
2023-01-29T10:08:33.046Z,0.39
2023-01-29T10:09:49.120Z,0.68
2023-01-29T10:10:52.373Z,0.58
2023-01-29T10:12:01.789Z,0.51
2023-01-29T10:13:15.732Z,0.18
2023-01-29T10:14:30.871Z,0.22
2023-01-29T10:15:48.576Z,0.05
2023-01-29T10:17:04.174Z,0.29
2023-01-29T10:18:26.790Z,0.13
2023-01-29T10:19:57.370Z,0.08
2023-01-29T10:21:12.291Z,0.48
2023-01-29T10:22:44.008Z,0.44
2023-01-29T10:23:51.288Z,0.29
2023-01-29T10:24:58.573Z,-0.17
2023-01-29T10:26:01.905Z,0.07
2023-01-29T10:27:12.854Z,0.09
2023-01-29T10:28:18.781Z,0.18
2023-01-29T10:29:22.067Z,0.31
2023-01-29T10:30:32.865Z,0.15
2023-01-29T10:31:40.044Z,0.18
2023-01-29T10:32:43.426Z,0.44
2023-01-29T10:34:02.172Z,0.28
2023-01-29T10:35:25.670Z,-0.01
2023-01-29T10:36:35.183Z,0.27
2023-01-29T10:37:39.717Z,0.43
2023-01-29T10:38:46.269Z,0.45
2023-01-29T10:39:48.949Z,0.89
2023-01-29T10:40:59.765Z,0.88
2023-01-29T10:42:08.173Z,0.96
2023-01-29T10:43:19.530Z,0.88
2023-01-29T10:44:34.181Z,0.81
2023-01-29T10:45:46.403Z,1.17
2023-01-29T10:47:03.577Z,1.08
2023-01-29T10:48:31.195Z,1.03
2023-01-29T10:49:59.588Z,0.73
2023-01-29T10:51:14.519Z,0.60
2023-01-29T10:52:32.669Z,0.97
2023-01-29T10:53:46.898Z,1.02
2023-01-29T10:55:04.111Z,1.04
2023-01-29T10:56:23.217Z,1.07
2023-01-29T10:57:41.636Z,0.95
2023-01-29T10:58:49.607Z,1.29
2023-01-29T11:00:05.325Z,1.70
2023-01-29T11:01:09.306Z,1.40
2023-01-29T11:02:18.275Z,1.21
2023-01-29T11:03:28.292Z,0.72
2023-01-29T11:04:32.714Z,0.50
2023-01-29T11:05:42.266Z,1.05
2023-01-29T11:06:45.666Z,1.01
2023-01-29T11:07:49.678Z,1.00
2023-01-29T11:08:57.371Z,1.39
2023-01-29T11:10:06.359Z,1.44
2023-01-29T11:11:11.184Z,1.37
2023-01-29T11:12:15.483Z,1.43
2023-01-29T11:13:19.154Z,1.66
2023-01-29T11:14:26.127Z,2.14
2023-01-29T11:15:36.237Z,2.47
2023-01-29T11:16:43.480Z,2.15
2023-01-29T11:18:05.303Z,2.38
2023-01-29T11:19:08.470Z,2.11
2023-01-29T11:21:58.185Z,1.88
2023-01-29T11:23:01.106Z,1.94
2023-01-29T11:24:12.863Z,1.98
2023-01-29T11:25:18.690Z,2.36
2023-01-29T11:26:23.976Z,2.42
2023-01-29T11:27:29.726Z,2.12
2023-01-29T11:28:40.019Z,2.68
2023-01-29T11:29:49.153Z,2.82
2023-01-29T11:30:51.433Z,2.76
2023-01-29T11:31:54.696Z,3.69
2023-01-29T11:33:09.213Z,4.23
2023-01-29T11:34:20.798Z,4.04
2023-01-29T11:35:25.943Z,4.85
2023-01-29T11:36:37.134Z,4.83
2023-01-29T11:37:41.552Z,4.95
2023-01-29T11:38:43.447Z,5.57
2023-01-29T11:39:49.143Z,5.47
2023-01-29T11:40:52.718Z,5.34
2023-01-29T11:41:59.028Z,4.73
2023-01-29T11:43:13.149Z,4.61
2023-01-29T11:44:20.620Z,4.48
2023-01-29T11:45:27.516Z,4.02
2023-01-29T11:46:29.510Z,4.17
2023-01-29T11:47:33.855Z,4.40
2023-01-29T11:48:44.773Z,4.89
2023-01-29T11:49:49.841Z,4.95
2023-01-29T11:50:55.146Z,4.39
2023-01-29T11:52:02.070Z,4.95
2023-01-29T11:53:07.027Z,5.17
2023-01-29T11:54:20.764Z,5.88
2023-01-29T11:55:25.670Z,5.57
2023-01-29T11:56:30.164Z,5.56
2023-01-29T11:57:35.586Z,5.48
2023-01-29T11:58:37.319Z,5.42
2023-01-29T11:59:48.676Z,4.98
2023-01-29T12:00:55.377Z,4.59
2023-01-29T12:02:07.186Z,4.63
2023-01-29T12:03:17.476Z,5.01
2023-01-29T12:04:23.353Z,5.54
2023-01-29T12:05:28.582Z,5.41
2023-01-29T12:06:35.999Z,5.36
2023-01-29T12:07:43.000Z,5.27
2023-01-29T12:08:44.748Z,5.01
2023-01-29T12:09:54.041Z,5.17
2023-01-29T12:11:09.479Z,5.80
2023-01-29T12:12:28.659Z,6.66
2023-01-29T12:13:31.408Z,7.58
2023-01-29T12:14:34.475Z,6.60
2023-01-29T12:15:37.600Z,5.73
2023-01-29T12:16:48.773Z,5.78
2023-01-29T12:18:08.480Z,5.73
2023-01-29T12:19:14.146Z,5.32
2023-01-29T12:20:21.385Z,5.31
2023-01-29T12:21:36.807Z,4.98
2023-01-29T12:22:45.361Z,4.80
2023-01-29T12:23:55.387Z,5.39
2023-01-29T12:25:00.007Z,5.87
2023-01-29T12:26:07.912Z,6.27
2023-01-29T12:27:18.061Z,6.33
2023-01-29T12:28:32.763Z,5.36
2023-01-29T12:29:43.862Z,5.56
2023-01-29T12:30:56.522Z,5.73
2023-01-29T12:32:08.152Z,5.19
2023-01-29T12:33:17.938Z,5.45
2023-01-29T12:34:27.662Z,5.86
2023-01-29T12:35:34.257Z,5.93
2023-01-29T12:36:43.035Z,6.20
2023-01-29T12:37:55.297Z,5.85
2023-01-29T12:38:58.901Z,6.02
2023-01-29T12:40:02.838Z,5.43
2023-01-29T12:41:09.548Z,5.29
2023-01-29T12:42:17.723Z,5.03
2023-01-29T12:43:27.626Z,5.52
2023-01-29T12:44:37.033Z,5.45
2023-01-29T12:45:39.749Z,4.95
2023-01-29T12:46:46.639Z,4.96
2023-01-29T12:47:53.250Z,4.92
2023-01-29T12:48:58.975Z,4.58
2023-01-29T12:50:05.926Z,4.65
2023-01-29T12:51:11.360Z,4.59
2023-01-29T12:52:19.237Z,4.80
2023-01-29T12:53:28.705Z,4.80
2023-01-29T12:54:39.534Z,4.68
2023-01-29T12:55:43.687Z,4.72
2023-01-29T12:56:48.787Z,4.72
2023-01-29T12:57:57.659Z,5.05
2023-01-29T12:59:02.729Z,4.69
2023-01-29T13:00:11.456Z,4.72
2023-01-29T13:01:18.234Z,4.67
2023-01-29T13:02:30.875Z,4.32
2023-01-29T13:03:47.717Z,3.89
2023-01-29T13:04:58.399Z,3.75
2023-01-29T13:06:03.525Z,3.58
2023-01-29T13:07:14.357Z,3.39
2023-01-29T13:08:19.636Z,3.46
2023-01-29T13:09:26.716Z,3.12
2023-01-29T13:10:34.280Z,2.99
2023-01-29T13:11:41.921Z,2.83
2023-01-29T13:12:54.061Z,2.38
2023-01-29T13:14:02.123Z,2.56
2023-01-29T13:15:11.347Z,2.60
2023-01-29T13:16:22.234Z,2.76
2023-01-29T13:17:30.925Z,2.89
2023-01-29T13:18:40.180Z,2.85
2023-01-29T13:19:45.309Z,3.07
2023-01-29T13:20:49.846Z,2.78
2023-01-29T13:21:55.462Z,2.97
2023-01-29T13:23:03.568Z,2.83
2023-01-29T13:24:15.479Z,2.97
2023-01-29T13:25:19.259Z,2.87
2023-01-29T13:26:23.122Z,2.90
2023-01-29T13:27:27.646Z,2.94
2023-01-29T13:28:30.726Z,2.97
2023-01-29T13:29:34.919Z,2.95
2023-01-29T13:30:37.539Z,3.09
2023-01-29T13:31:46.388Z,3.10
2023-01-29T13:32:51.772Z,2.64
2023-01-29T13:33:57.745Z,2.24
2023-01-29T13:35:05.339Z,2.16
2023-01-29T13:36:18.317Z,2.03
2023-01-29T13:37:35.382Z,2.09
2023-01-29T13:38:38.106Z,2.08
2023-01-29T13:39:58.159Z,2.18
2023-01-29T13:41:04.473Z,2.25
2023-01-29T13:42:18.580Z,2.10
2023-01-29T13:43:23.850Z,2.09
2023-01-29T13:44:29.355Z,2.11
2023-01-29T13:45:35.749Z,2.16
2023-01-29T13:46:42.458Z,1.94
2023-01-29T13:47:46.261Z,2.00
2023-01-29T13:48:52.411Z,2.04
2023-01-29T13:49:58.949Z,1.77
2023-01-29T13:51:03.437Z,1.93
2023-01-29T13:52:31.574Z,2.08
2023-01-29T13:53:39.060Z,1.75
2023-01-29T13:54:41.727Z,1.60
2023-01-29T13:55:51.984Z,1.71
2023-01-29T13:56:59.468Z,1.51
2023-01-29T13:58:03.062Z,1.86
2023-01-29T13:59:06.114Z,1.84
2023-01-29T14:01:01.373Z,1.88
2023-01-29T14:02:21.106Z,1.70
2023-01-29T14:04:04.569Z,1.94
2023-01-29T14:05:40.877Z,1.93
2023-01-29T14:06:50.041Z,2.01
2023-01-29T14:07:53.084Z,2.06
2023-01-29T14:08:54.810Z,1.89
2023-01-29T14:10:12.683Z,1.93
2023-01-29T14:11:35.627Z,1.71
2023-01-29T14:12:42.812Z,1.52
2023-01-29T14:13:47.630Z,1.85
2023-01-29T14:15:04.261Z,1.86
2023-01-29T14:16:34.738Z,1.81
2023-01-29T14:17:40.211Z,1.84
2023-01-29T14:18:48.287Z,1.68
2023-01-29T14:19:51.213Z,1.54
2023-01-29T14:21:06.044Z,1.57
2023-01-29T14:22:07.606Z,1.54
2023-01-29T14:23:24.218Z,1.54
2023-01-29T14:24:32.079Z,1.25
2023-01-29T14:25:35.433Z,1.29
2023-01-29T14:26:45.796Z,1.33
2023-01-29T14:27:48.486Z,1.35
2023-01-29T14:28:57.925Z,1.33
2023-01-29T14:30:03.234Z,1.48
2023-01-29T14:31:07.604Z,1.14
2023-01-29T14:32:15.708Z,1.39
2023-01-29T14:33:27.874Z,1.44
2023-01-29T14:34:32.979Z,1.32
2023-01-29T14:35:51.929Z,1.39